sensor_id;sensor_type;location;lat;lon;timestamp;temperature;humidity
67868;SHT31;54672;46.096;14.470;2022-07-23T00:01:30;22.13;67.48
67868;SHT31;54672;46.096;14.470;2022-07-23T00:03:56;22.01;67.97
67868;SHT31;54672;46.096;14.470;2022-07-23T00:06:23;21.94;68.38
67868;SHT31;54672;46.096;14.470;2022-07-23T00:08:49;21.87;68.47
67868;SHT31;54672;46.096;14.470;2022-07-23T00:11:14;21.85;68.69
67868;SHT31;54672;46.096;14.470;2022-07-23T00:13:40;21.81;68.87
67868;SHT31;54672;46.096;14.470;2022-07-23T00:16:05;21.82;68.82
67868;SHT31;54672;46.096;14.470;2022-07-23T00:18:31;21.81;68.90
67868;SHT31;54672;46.096;14.470;2022-07-23T00:20:56;21.82;68.90
67868;SHT31;54672;46.096;14.470;2022-07-23T00:23:22;21.75;68.95
67868;SHT31;54672;46.096;14.470;2022-07-23T00:25:47;21.73;68.83
67868;SHT31;54672;46.096;14.470;2022-07-23T00:28:13;21.67;69.27
67868;SHT31;54672;46.096;14.470;2022-07-23T00:30:38;21.65;69.31
67868;SHT31;54672;46.096;14.470;2022-07-23T00:33:06;21.80;68.07
67868;SHT31;54672;46.096;14.470;2022-07-23T00:35:39;21.81;68.25
67868;SHT31;54672;46.096;14.470;2022-07-23T00:38:09;21.75;68.50
67868;SHT31;54672;46.096;14.470;2022-07-23T00:40:35;21.84;68.28
67868;SHT31;54672;46.096;14.470;2022-07-23T00:43:01;21.77;68.40
67868;SHT31;54672;46.096;14.470;2022-07-23T00:45:27;21.75;68.42
67868;SHT31;54672;46.096;14.470;2022-07-23T00:47:53;21.73;68.56
67868;SHT31;54672;46.096;14.470;2022-07-23T00:50:18;21.61;69.15
67868;SHT31;54672;46.096;14.470;2022-07-23T00:52:44;21.50;69.61
67868;SHT31;54672;46.096;14.470;2022-07-23T00:55:10;21.41;69.87
67868;SHT31;54672;46.096;14.470;2022-07-23T00:57:36;21.41;69.90
67868;SHT31;54672;46.096;14.470;2022-07-23T01:00:05;21.36;69.95
67868;SHT31;54672;46.096;14.470;2022-07-23T01:02:31;21.33;70.19
67868;SHT31;54672;46.096;14.470;2022-07-23T01:04:57;21.27;70.13
67868;SHT31;54672;46.096;14.470;2022-07-23T01:07:23;21.26;70.40
67868;SHT31;54672;46.096;14.470;2022-07-23T01:09:49;21.26;70.53
67868;SHT31;54672;46.096;14.470;2022-07-23T01:12:16;21.27;70.54
67868;SHT31;54672;46.096;14.470;2022-07-23T01:14:41;21.29;70.61
67868;SHT31;54672;46.096;14.470;2022-07-23T01:17:06;21.30;70.38
67868;SHT31;54672;46.096;14.470;2022-07-23T01:19:32;21.27;70.46
67868;SHT31;54672;46.096;14.470;2022-07-23T01:21:58;21.24;70.56
67868;SHT31;54672;46.096;14.470;2022-07-23T01:24:25;21.24;70.67
67868;SHT31;54672;46.096;14.470;2022-07-23T01:26:50;21.20;70.84
67868;SHT31;54672;46.096;14.470;2022-07-23T01:29:16;21.18;71.18
67868;SHT31;54672;46.096;14.470;2022-07-23T01:31:42;21.13;71.00
67868;SHT31;54672;46.096;14.470;2022-07-23T01:34:08;21.10;71.10
67868;SHT31;54672;46.096;14.470;2022-07-23T01:36:35;21.12;71.41
67868;SHT31;54672;46.096;14.470;2022-07-23T01:39:01;21.03;71.65
67868;SHT31;54672;46.096;14.470;2022-07-23T01:41:26;20.83;71.71
67868;SHT31;54672;46.096;14.470;2022-07-23T01:43:52;20.78;71.86
67868;SHT31;54672;46.096;14.470;2022-07-23T01:46:17;20.79;71.71
67868;SHT31;54672;46.096;14.470;2022-07-23T01:48:42;20.86;71.73
67868;SHT31;54672;46.096;14.470;2022-07-23T01:51:08;20.79;71.98
67868;SHT31;54672;46.096;14.470;2022-07-23T01:53:34;20.73;71.79
67868;SHT31;54672;46.096;14.470;2022-07-23T01:56:00;20.71;71.89
67868;SHT31;54672;46.096;14.470;2022-07-23T01:58:27;20.69;72.05
67868;SHT31;54672;46.096;14.470;2022-07-23T02:00:53;20.62;72.28
67868;SHT31;54672;46.096;14.470;2022-07-23T02:03:19;20.62;72.53
67868;SHT31;54672;46.096;14.470;2022-07-23T02:05:45;20.68;72.54
67868;SHT31;54672;46.096;14.470;2022-07-23T02:08:10;20.65;72.34
67868;SHT31;54672;46.096;14.470;2022-07-23T02:10:36;20.62;72.04
67868;SHT31;54672;46.096;14.470;2022-07-23T02:13:01;20.67;72.09
67868;SHT31;54672;46.096;14.470;2022-07-23T02:15:27;20.62;72.14
67868;SHT31;54672;46.096;14.470;2022-07-23T02:17:54;20.59;72.32
67868;SHT31;54672;46.096;14.470;2022-07-23T02:20:19;20.55;72.84
67868;SHT31;54672;46.096;14.470;2022-07-23T02:22:44;20.48;73.09
67868;SHT31;54672;46.096;14.470;2022-07-23T02:25:10;20.41;73.84
67868;SHT31;54672;46.096;14.470;2022-07-23T02:27:36;20.28;74.36
67868;SHT31;54672;46.096;14.470;2022-07-23T02:30:01;20.10;75.19
67868;SHT31;54672;46.096;14.470;2022-07-23T02:32:27;20.01;75.19
67868;SHT31;54672;46.096;14.470;2022-07-23T02:34:52;19.98;75.44
67868;SHT31;54672;46.096;14.470;2022-07-23T02:37:18;19.94;75.63
67868;SHT31;54672;46.096;14.470;2022-07-23T02:39:43;20.04;75.59
67868;SHT31;54672;46.096;14.470;2022-07-23T02:42:09;20.06;75.40
67868;SHT31;54672;46.096;14.470;2022-07-23T02:44:35;20.06;75.54
67868;SHT31;54672;46.096;14.470;2022-07-23T02:47:00;20.03;75.28
67868;SHT31;54672;46.096;14.470;2022-07-23T02:49:26;20.00;75.25
67868;SHT31;54672;46.096;14.470;2022-07-23T02:51:51;19.92;75.46
67868;SHT31;54672;46.096;14.470;2022-07-23T02:54:17;19.92;75.96
67868;SHT31;54672;46.096;14.470;2022-07-23T02:56:42;19.97;75.83
67868;SHT31;54672;46.096;14.470;2022-07-23T02:59:08;19.96;75.86
67868;SHT31;54672;46.096;14.470;2022-07-23T03:01:33;19.96;75.90
67868;SHT31;54672;46.096;14.470;2022-07-23T03:03:59;19.83;76.22
67868;SHT31;54672;46.096;14.470;2022-07-23T03:06:24;19.74;76.66
67868;SHT31;54672;46.096;14.470;2022-07-23T03:08:50;19.67;76.81
67868;SHT31;54672;46.096;14.470;2022-07-23T03:11:15;19.61;76.83
67868;SHT31;54672;46.096;14.470;2022-07-23T03:13:41;19.56;77.33
67868;SHT31;54672;46.096;14.470;2022-07-23T03:16:06;19.53;77.30
67868;SHT31;54672;46.096;14.470;2022-07-23T03:18:32;19.48;77.23
67868;SHT31;54672;46.096;14.470;2022-07-23T03:20:58;19.46;77.57
67868;SHT31;54672;46.096;14.470;2022-07-23T03:23:24;19.49;77.58
67868;SHT31;54672;46.096;14.470;2022-07-23T03:25:49;19.48;77.61
67868;SHT31;54672;46.096;14.470;2022-07-23T03:28:16;19.49;77.47
67868;SHT31;54672;46.096;14.470;2022-07-23T03:30:45;19.43;77.54
67868;SHT31;54672;46.096;14.470;2022-07-23T03:33:16;19.51;77.77
67868;SHT31;54672;46.096;14.470;2022-07-23T03:35:45;19.45;78.09
67868;SHT31;54672;46.096;14.470;2022-07-23T03:38:11;19.41;78.14
67868;SHT31;54672;46.096;14.470;2022-07-23T03:40:36;19.32;78.32
67868;SHT31;54672;46.096;14.470;2022-07-23T03:43:02;19.28;78.39
67868;SHT31;54672;46.096;14.470;2022-07-23T03:45:27;19.32;78.52
67868;SHT31;54672;46.096;14.470;2022-07-23T03:47:53;19.36;78.04
67868;SHT31;54672;46.096;14.470;2022-07-23T03:50:19;19.52;77.99
67868;SHT31;54672;46.096;14.470;2022-07-23T03:52:44;19.62;77.53
67868;SHT31;54672;46.096;14.470;2022-07-23T03:55:10;19.62;77.63
67868;SHT31;54672;46.096;14.470;2022-07-23T03:57:35;19.62;77.51
67868;SHT31;54672;46.096;14.470;2022-07-23T04:00:02;19.73;77.09
67868;SHT31;54672;46.096;14.470;2022-07-23T04:02:28;20.03;76.60
67868;SHT31;54672;46.096;14.470;2022-07-23T04:04:54;20.28;75.66
67868;SHT31;54672;46.096;14.470;2022-07-23T04:07:19;20.31;75.33
67868;SHT31;54672;46.096;14.470;2022-07-23T04:09:45;20.52;74.60
67868;SHT31;54672;46.096;14.470;2022-07-23T04:12:10;20.89;73.48
67868;SHT31;54672;46.096;14.470;2022-07-23T04:14:36;21.46;71.81
67868;SHT31;54672;46.096;14.470;2022-07-23T04:17:02;22.06;69.65
67868;SHT31;54672;46.096;14.470;2022-07-23T04:19:27;22.73;67.61
67868;SHT31;54672;46.096;14.470;2022-07-23T04:21:53;23.21;65.83
67868;SHT31;54672;46.096;14.470;2022-07-23T04:24:19;23.57;64.36
67868;SHT31;54672;46.096;14.470;2022-07-23T04:26:45;22.66;67.11
67868;SHT31;54672;46.096;14.470;2022-07-23T04:29:10;22.90;66.55
67868;SHT31;54672;46.096;14.470;2022-07-23T04:31:36;23.07;65.57
67868;SHT31;54672;46.096;14.470;2022-07-23T04:34:01;22.11;68.62
67868;SHT31;54672;46.096;14.470;2022-07-23T04:36:27;22.43;68.29
67868;SHT31;54672;46.096;14.470;2022-07-23T04:38:52;23.44;65.36
67868;SHT31;54672;46.096;14.470;2022-07-23T04:41:18;24.31;62.08
67868;SHT31;54672;46.096;14.470;2022-07-23T04:43:43;24.13;62.13
67868;SHT31;54672;46.096;14.470;2022-07-23T04:46:09;24.03;62.10
67868;SHT31;54672;46.096;14.470;2022-07-23T04:48:36;24.09;62.27
67868;SHT31;54672;46.096;14.470;2022-07-23T04:51:01;23.54;63.82
67868;SHT31;54672;46.096;14.470;2022-07-23T04:53:26;22.84;66.22
67868;SHT31;54672;46.096;14.470;2022-07-23T04:55:52;22.81;67.24
67868;SHT31;54672;46.096;14.470;2022-07-23T04:58:17;22.89;66.70
67868;SHT31;54672;46.096;14.470;2022-07-23T05:00:42;23.06;65.97
67868;SHT31;54672;46.096;14.470;2022-07-23T05:03:08;23.12;66.13
67868;SHT31;54672;46.096;14.470;2022-07-23T05:05:33;23.18;65.91
67868;SHT31;54672;46.096;14.470;2022-07-23T05:07:59;23.57;64.67
67868;SHT31;54672;46.096;14.470;2022-07-23T05:10:24;23.96;63.34
67868;SHT31;54672;46.096;14.470;2022-07-23T05:12:49;24.10;62.57
67868;SHT31;54672;46.096;14.470;2022-07-23T05:15:15;24.21;62.60
67868;SHT31;54672;46.096;14.470;2022-07-23T05:17:40;25.09;60.01
67868;SHT31;54672;46.096;14.470;2022-07-23T05:20:06;26.78;54.69
67868;SHT31;54672;46.096;14.470;2022-07-23T05:22:32;28.01;51.01
67868;SHT31;54672;46.096;14.470;2022-07-23T05:24:58;29.01;48.43
67868;SHT31;54672;46.096;14.470;2022-07-23T05:27:23;29.38;47.82
67868;SHT31;54672;46.096;14.470;2022-07-23T05:29:48;29.97;46.08
67868;SHT31;54672;46.096;14.470;2022-07-23T05:32:14;30.28;45.31
67868;SHT31;54672;46.096;14.470;2022-07-23T05:34:39;30.41;44.80
67868;SHT31;54672;46.096;14.470;2022-07-23T05:37:05;30.47;44.86
67868;SHT31;54672;46.096;14.470;2022-07-23T05:39:31;30.67;44.59
67868;SHT31;54672;46.096;14.470;2022-07-23T05:41:56;31.02;43.78
67868;SHT31;54672;46.096;14.470;2022-07-23T05:44:22;30.78;44.49
67868;SHT31;54672;46.096;14.470;2022-07-23T05:46:47;30.58;44.80
67868;SHT31;54672;46.096;14.470;2022-07-23T05:49:12;30.13;45.07
67868;SHT31;54672;46.096;14.470;2022-07-23T05:51:38;30.43;44.86
67868;SHT31;54672;46.096;14.470;2022-07-23T05:54:03;30.71;44.85
67868;SHT31;54672;46.096;14.470;2022-07-23T05:56:29;30.45;44.90
67868;SHT31;54672;46.096;14.470;2022-07-23T05:58:54;29.26;47.42
67868;SHT31;54672;46.096;14.470;2022-07-23T06:01:20;28.80;48.46
67868;SHT31;54672;46.096;14.470;2022-07-23T06:03:45;28.10;50.22
67868;SHT31;54672;46.096;14.470;2022-07-23T06:06:10;29.65;46.79
67868;SHT31;54672;46.096;14.470;2022-07-23T06:08:36;30.79;44.55
67868;SHT31;54672;46.096;14.470;2022-07-23T06:11:01;31.78;43.01
67868;SHT31;54672;46.096;14.470;2022-07-23T06:13:28;32.32;42.13
67868;SHT31;54672;46.096;14.470;2022-07-23T06:15:53;33.19;40.00
67868;SHT31;54672;46.096;14.470;2022-07-23T06:18:18;32.62;40.29
67868;SHT31;54672;46.096;14.470;2022-07-23T06:20:44;32.72;40.10
67868;SHT31;54672;46.096;14.470;2022-07-23T06:23:09;33.35;39.84
67868;SHT31;54672;46.096;14.470;2022-07-23T06:25:35;33.92;38.35
67868;SHT31;54672;46.096;14.470;2022-07-23T06:28:00;34.33;37.47
67868;SHT31;54672;46.096;14.470;2022-07-23T06:30:26;34.50;36.15
67868;SHT31;54672;46.096;14.470;2022-07-23T06:32:51;34.39;37.41
67868;SHT31;54672;46.096;14.470;2022-07-23T06:35:17;32.05;39.60
67868;SHT31;54672;46.096;14.470;2022-07-23T06:37:42;31.22;41.68
67868;SHT31;54672;46.096;14.470;2022-07-23T06:40:09;30.79;43.04
67868;SHT31;54672;46.096;14.470;2022-07-23T06:42:34;31.72;41.29
67868;SHT31;54672;46.096;14.470;2022-07-23T06:45:03;30.53;43.69
67868;SHT31;54672;46.096;14.470;2022-07-23T06:47:29;30.92;42.28
67868;SHT31;54672;46.096;14.470;2022-07-23T06:49:54;30.09;44.88
67868;SHT31;54672;46.096;14.470;2022-07-23T06:52:19;32.41;40.85
67868;SHT31;54672;46.096;14.470;2022-07-23T06:54:45;33.64;39.15
67868;SHT31;54672;46.096;14.470;2022-07-23T06:57:10;33.40;38.92
67868;SHT31;54672;46.096;14.470;2022-07-23T06:59:36;33.17;40.49
67868;SHT31;54672;46.096;14.470;2022-07-23T07:02:05;32.52;40.56
67868;SHT31;54672;46.096;14.470;2022-07-23T07:04:31;31.95;41.60
67868;SHT31;54672;46.096;14.470;2022-07-23T07:06:57;31.90;41.40
67868;SHT31;54672;46.096;14.470;2022-07-23T07:09:22;30.33;44.07
67868;SHT31;54672;46.096;14.470;2022-07-23T07:11:48;31.46;43.17
67868;SHT31;54672;46.096;14.470;2022-07-23T07:14:13;33.40;40.26
67868;SHT31;54672;46.096;14.470;2022-07-23T07:16:38;34.05;38.13
67868;SHT31;54672;46.096;14.470;2022-07-23T07:19:04;34.61;37.35
67868;SHT31;54672;46.096;14.470;2022-07-23T07:21:29;32.68;39.87
67868;SHT31;54672;46.096;14.470;2022-07-23T07:23:55;30.54;44.31
67868;SHT31;54672;46.096;14.470;2022-07-23T07:26:20;31.70;42.21
67868;SHT31;54672;46.096;14.470;2022-07-23T07:28:45;32.39;41.63
67868;SHT31;54672;46.096;14.470;2022-07-23T07:31:11;33.87;38.64
67868;SHT31;54672;46.096;14.470;2022-07-23T07:33:36;34.56;37.98
67868;SHT31;54672;46.096;14.470;2022-07-23T07:36:02;34.80;37.19
67868;SHT31;54672;46.096;14.470;2022-07-23T07:38:28;35.14;36.82
67868;SHT31;54672;46.096;14.470;2022-07-23T07:40:53;35.44;36.67
67868;SHT31;54672;46.096;14.470;2022-07-23T07:43:18;35.78;35.51
67868;SHT31;54672;46.096;14.470;2022-07-23T07:45:44;35.26;36.54
67868;SHT31;54672;46.096;14.470;2022-07-23T07:48:09;35.37;36.56
67868;SHT31;54672;46.096;14.470;2022-07-23T07:50:35;35.75;35.36
67868;SHT31;54672;46.096;14.470;2022-07-23T07:53:00;35.26;36.22
67868;SHT31;54672;46.096;14.470;2022-07-23T07:55:26;34.42;37.91
67868;SHT31;54672;46.096;14.470;2022-07-23T07:57:52;35.03;36.59
67868;SHT31;54672;46.096;14.470;2022-07-23T08:00:18;34.86;36.46
67868;SHT31;54672;46.096;14.470;2022-07-23T08:02:49;34.57;37.20
67868;SHT31;54672;46.096;14.470;2022-07-23T08:05:14;32.22;41.55
67868;SHT31;54672;46.096;14.470;2022-07-23T08:07:43;33.30;39.58
67868;SHT31;54672;46.096;14.470;2022-07-23T08:10:09;34.09;38.66
67868;SHT31;54672;46.096;14.470;2022-07-23T08:12:46;33.72;39.33
67868;SHT31;54672;46.096;14.470;2022-07-23T08:15:13;34.20;38.49
67868;SHT31;54672;46.096;14.470;2022-07-23T08:17:39;33.46;39.35
67868;SHT31;54672;46.096;14.470;2022-07-23T08:20:06;32.90;40.06
67868;SHT31;54672;46.096;14.470;2022-07-23T08:25:07;33.46;39.03
67868;SHT31;54672;46.096;14.470;2022-07-23T08:27:32;33.61;39.06
67868;SHT31;54672;46.096;14.470;2022-07-23T08:29:58;33.61;38.79
67868;SHT31;54672;46.096;14.470;2022-07-23T08:32:23;32.95;39.64
67868;SHT31;54672;46.096;14.470;2022-07-23T08:34:48;32.95;40.71
67868;SHT31;54672;46.096;14.470;2022-07-23T08:37:14;33.57;39.18
67868;SHT31;54672;46.096;14.470;2022-07-23T08:39:39;33.72;38.87
67868;SHT31;54672;46.096;14.470;2022-07-23T08:42:05;33.03;39.40
67868;SHT31;54672;46.096;14.470;2022-07-23T08:44:31;31.85;41.82
67868;SHT31;54672;46.096;14.470;2022-07-23T08:46:56;32.99;39.92
67868;SHT31;54672;46.096;14.470;2022-07-23T08:49:22;32.92;39.54
67868;SHT31;54672;46.096;14.470;2022-07-23T08:51:48;33.65;38.83
67868;SHT31;54672;46.096;14.470;2022-07-23T08:54:13;34.61;36.70
67868;SHT31;54672;46.096;14.470;2022-07-23T08:56:38;33.82;37.54
67868;SHT31;54672;46.096;14.470;2022-07-23T08:59:05;33.40;38.76
67868;SHT31;54672;46.096;14.470;2022-07-23T09:01:30;33.57;37.85
67868;SHT31;54672;46.096;14.470;2022-07-23T09:03:55;34.76;36.45
67868;SHT31;54672;46.096;14.470;2022-07-23T09:06:21;35.65;35.04
67868;SHT31;54672;46.096;14.470;2022-07-23T09:08:46;36.19;34.15
67868;SHT31;54672;46.096;14.470;2022-07-23T09:11:15;36.37;33.67
67868;SHT31;54672;46.096;14.470;2022-07-23T09:13:52;36.29;33.87
67868;SHT31;54672;46.096;14.470;2022-07-23T09:16:29;36.16;33.97
67868;SHT31;54672;46.096;14.470;2022-07-23T09:19:00;34.64;36.06
67868;SHT31;54672;46.096;14.470;2022-07-23T09:26:40;37.10;32.34
67868;SHT31;54672;46.096;14.470;2022-07-23T09:29:30;37.32;32.35
67868;SHT31;54672;46.096;14.470;2022-07-23T09:34:36;35.03;35.29
67868;SHT31;54672;46.096;14.470;2022-07-23T09:37:17;34.55;35.96
67868;SHT31;54672;46.096;14.470;2022-07-23T09:39:46;34.84;35.32
67868;SHT31;54672;46.096;14.470;2022-07-23T09:44:41;34.83;34.81
67868;SHT31;54672;46.096;14.470;2022-07-23T09:47:08;34.84;35.05
67868;SHT31;54672;46.096;14.470;2022-07-23T09:49:33;34.98;35.30
67868;SHT31;54672;46.096;14.470;2022-07-23T09:52:00;35.21;34.71
67868;SHT31;54672;46.096;14.470;2022-07-23T09:54:28;35.37;34.59
67868;SHT31;54672;46.096;14.470;2022-07-23T09:56:56;35.42;33.85
67868;SHT31;54672;46.096;14.470;2022-07-23T09:59:27;35.42;34.08
67868;SHT31;54672;46.096;14.470;2022-07-23T10:01:55;35.61;34.00
67868;SHT31;54672;46.096;14.470;2022-07-23T10:04:23;35.62;33.14
67868;SHT31;54672;46.096;14.470;2022-07-23T10:06:54;35.61;32.96
67868;SHT31;54672;46.096;14.470;2022-07-23T10:09:29;35.57;32.98
67868;SHT31;54672;46.096;14.470;2022-07-23T10:11:57;35.48;32.70
67868;SHT31;54672;46.096;14.470;2022-07-23T10:14:49;35.78;32.75
67868;SHT31;54672;46.096;14.470;2022-07-23T10:17:16;36.05;31.62
67868;SHT31;54672;46.096;14.470;2022-07-23T10:19:43;36.32;30.82
67868;SHT31;54672;46.096;14.470;2022-07-23T10:22:14;36.46;30.82
67868;SHT31;54672;46.096;14.470;2022-07-23T10:37:37;35.64;32.48
67868;SHT31;54672;46.096;14.470;2022-07-23T10:40:20;35.84;32.60
67868;SHT31;54672;46.096;14.470;2022-07-23T10:42:48;36.33;32.03
67868;SHT31;54672;46.096;14.470;2022-07-23T10:45:36;36.75;31.60
67868;SHT31;54672;46.096;14.470;2022-07-23T10:48:17;36.99;31.53
67868;SHT31;54672;46.096;14.470;2022-07-23T10:50:44;37.22;30.83
67868;SHT31;54672;46.096;14.470;2022-07-23T10:59:19;37.38;27.44
67868;SHT31;54672;46.096;14.470;2022-07-23T11:01:45;37.24;26.57
67868;SHT31;54672;46.096;14.470;2022-07-23T11:04:11;37.15;26.73
67868;SHT31;54672;46.096;14.470;2022-07-23T11:09:27;37.19;26.07
67868;SHT31;54672;46.096;14.470;2022-07-23T11:17:40;37.15;25.60
67868;SHT31;54672;46.096;14.470;2022-07-23T11:20:23;37.01;25.49
67868;SHT31;54672;46.096;14.470;2022-07-23T11:27:55;37.43;24.87
67868;SHT31;54672;46.096;14.470;2022-07-23T11:35:33;37.52;24.49
67868;SHT31;54672;46.096;14.470;2022-07-23T11:38:22;37.72;24.44
67868;SHT31;54672;46.096;14.470;2022-07-23T11:40:52;37.76;24.24
67868;SHT31;54672;46.096;14.470;2022-07-23T11:43:20;37.68;24.22
67868;SHT31;54672;46.096;14.470;2022-07-23T11:45:50;37.56;24.33
67868;SHT31;54672;46.096;14.470;2022-07-23T11:48:34;37.53;24.91
67868;SHT31;54672;46.096;14.470;2022-07-23T11:51:00;37.58;24.33
67868;SHT31;54672;46.096;14.470;2022-07-23T11:53:32;37.49;24.40
67868;SHT31;54672;46.096;14.470;2022-07-23T11:56:10;37.53;25.05
67868;SHT31;54672;46.096;14.470;2022-07-23T11:58:37;37.63;24.17
67868;SHT31;54672;46.096;14.470;2022-07-23T12:01:03;37.56;24.59
67868;SHT31;54672;46.096;14.470;2022-07-23T12:03:29;37.68;24.93
67868;SHT31;54672;46.096;14.470;2022-07-23T12:05:58;37.87;24.69
67868;SHT31;54672;46.096;14.470;2022-07-23T12:08:24;37.36;25.44
67868;SHT31;54672;46.096;14.470;2022-07-23T12:10:50;37.59;25.71
67868;SHT31;54672;46.096;14.470;2022-07-23T12:13:17;37.80;25.56
67868;SHT31;54672;46.096;14.470;2022-07-23T12:15:45;37.49;25.73
67868;SHT31;54672;46.096;14.470;2022-07-23T12:18:16;37.52;26.11
67868;SHT31;54672;46.096;14.470;2022-07-23T12:20:45;37.15;25.75
67868;SHT31;54672;46.096;14.470;2022-07-23T12:23:13;36.74;26.39
67868;SHT31;54672;46.096;14.470;2022-07-23T12:25:42;37.01;26.73
67868;SHT31;54672;46.096;14.470;2022-07-23T12:28:14;37.47;26.54
67868;SHT31;54672;46.096;14.470;2022-07-23T12:30:48;37.63;25.93
67868;SHT31;54672;46.096;14.470;2022-07-23T12:33:20;37.65;26.17
67868;SHT31;54672;46.096;14.470;2022-07-23T12:35:46;37.59;26.23
67868;SHT31;54672;46.096;14.470;2022-07-23T12:38:20;37.76;26.30
67868;SHT31;54672;46.096;14.470;2022-07-23T12:41:06;37.84;25.95
67868;SHT31;54672;46.096;14.470;2022-07-23T12:43:33;37.66;25.95
67868;SHT31;54672;46.096;14.470;2022-07-23T12:46:12;37.59;26.36
67868;SHT31;54672;46.096;14.470;2022-07-23T12:48:49;37.52;26.68
67868;SHT31;54672;46.096;14.470;2022-07-23T12:51:23;37.51;26.99
67868;SHT31;54672;46.096;14.470;2022-07-23T12:53:54;37.66;27.00
67868;SHT31;54672;46.096;14.470;2022-07-23T12:56:21;37.70;26.05
67868;SHT31;54672;46.096;14.470;2022-07-23T13:04:05;37.76;25.97
67868;SHT31;54672;46.096;14.470;2022-07-23T13:06:34;37.82;25.43
67868;SHT31;54672;46.096;14.470;2022-07-23T13:09:01;37.89;25.19
67868;SHT31;54672;46.096;14.470;2022-07-23T13:11:27;37.75;25.29
67868;SHT31;54672;46.096;14.470;2022-07-23T13:13:52;37.68;25.46
67868;SHT31;54672;46.096;14.470;2022-07-23T13:16:18;37.86;25.01
67868;SHT31;54672;46.096;14.470;2022-07-23T13:18:44;37.56;25.18
67868;SHT31;54672;46.096;14.470;2022-07-23T13:21:09;37.68;25.63
67868;SHT31;54672;46.096;14.470;2022-07-23T13:23:36;37.83;25.13
67868;SHT31;54672;46.096;14.470;2022-07-23T13:26:01;37.75;25.21
67868;SHT31;54672;46.096;14.470;2022-07-23T13:28:27;37.68;25.07
67868;SHT31;54672;46.096;14.470;2022-07-23T13:30:52;37.70;24.87
67868;SHT31;54672;46.096;14.470;2022-07-23T13:33:23;37.70;24.71
67868;SHT31;54672;46.096;14.470;2022-07-23T13:35:50;37.55;25.30
67868;SHT31;54672;46.096;14.470;2022-07-23T13:38:17;37.58;25.13
67868;SHT31;54672;46.096;14.470;2022-07-23T13:40:45;37.59;24.89
67868;SHT31;54672;46.096;14.470;2022-07-23T13:43:12;37.46;24.17
67868;SHT31;54672;46.096;14.470;2022-07-23T13:45:39;37.38;24.56
67868;SHT31;54672;46.096;14.470;2022-07-23T13:48:06;37.42;24.55
67868;SHT31;54672;46.096;14.470;2022-07-23T13:50:33;37.55;24.48
67868;SHT31;54672;46.096;14.470;2022-07-23T13:53:03;37.36;24.83
67868;SHT31;54672;46.096;14.470;2022-07-23T13:55:30;37.49;25.05
67868;SHT31;54672;46.096;14.470;2022-07-23T13:57:56;37.51;24.92
67868;SHT31;54672;46.096;14.470;2022-07-23T14:00:21;37.32;24.89
67868;SHT31;54672;46.096;14.470;2022-07-23T14:02:46;37.32;24.71
67868;SHT31;54672;46.096;14.470;2022-07-23T14:05:12;37.05;24.60
67868;SHT31;54672;46.096;14.470;2022-07-23T14:07:38;37.26;24.46
67868;SHT31;54672;46.096;14.470;2022-07-23T14:10:06;37.10;24.26
67868;SHT31;54672;46.096;14.470;2022-07-23T14:12:33;37.13;24.41
67868;SHT31;54672;46.096;14.470;2022-07-23T14:14:58;37.17;23.67
67868;SHT31;54672;46.096;14.470;2022-07-23T14:17:23;37.15;23.80
67868;SHT31;54672;46.096;14.470;2022-07-23T14:19:49;36.98;23.68
67868;SHT31;54672;46.096;14.470;2022-07-23T14:22:15;36.80;23.72
67868;SHT31;54672;46.096;14.470;2022-07-23T14:24:41;36.87;23.49
67868;SHT31;54672;46.096;14.470;2022-07-23T14:27:06;36.85;23.77
67868;SHT31;54672;46.096;14.470;2022-07-23T14:29:32;36.84;24.02
67868;SHT31;54672;46.096;14.470;2022-07-23T14:31:58;36.70;23.81
67868;SHT31;54672;46.096;14.470;2022-07-23T14:34:23;36.54;23.90
67868;SHT31;54672;46.096;14.470;2022-07-23T14:36:50;36.37;23.28
67868;SHT31;54672;46.096;14.470;2022-07-23T14:39:15;36.16;23.70
67868;SHT31;54672;46.096;14.470;2022-07-23T14:41:41;36.03;23.53
67868;SHT31;54672;46.096;14.470;2022-07-23T14:44:06;36.20;23.45
67868;SHT31;54672;46.096;14.470;2022-07-23T14:46:32;36.32;23.87
67868;SHT31;54672;46.096;14.470;2022-07-23T14:48:57;36.47;23.38
67868;SHT31;54672;46.096;14.470;2022-07-23T14:51:23;36.60;23.21
67868;SHT31;54672;46.096;14.470;2022-07-23T14:53:48;36.71;23.14
67868;SHT31;54672;46.096;14.470;2022-07-23T14:56:14;36.84;22.80
67868;SHT31;54672;46.096;14.470;2022-07-23T14:58:40;37.02;23.06
67868;SHT31;54672;46.096;14.470;2022-07-23T15:01:06;36.97;22.39
67868;SHT31;54672;46.096;14.470;2022-07-23T15:03:31;36.98;22.20
67868;SHT31;54672;46.096;14.470;2022-07-23T15:05:57;37.01;22.33
67868;SHT31;54672;46.096;14.470;2022-07-23T15:08:23;36.97;22.00
67868;SHT31;54672;46.096;14.470;2022-07-23T15:10:48;36.98;22.57
67868;SHT31;54672;46.096;14.470;2022-07-23T15:13:14;36.87;22.31
67868;SHT31;54672;46.096;14.470;2022-07-23T15:15:39;36.83;23.09
67868;SHT31;54672;46.096;14.470;2022-07-23T15:18:05;36.78;23.29
67868;SHT31;54672;46.096;14.470;2022-07-23T15:20:30;36.51;22.59
67868;SHT31;54672;46.096;14.470;2022-07-23T15:22:56;36.51;22.84
67868;SHT31;54672;46.096;14.470;2022-07-23T15:25:21;36.43;22.74
67868;SHT31;54672;46.096;14.470;2022-07-23T15:27:47;36.26;23.04
67868;SHT31;54672;46.096;14.470;2022-07-23T15:30:13;35.90;24.11
67868;SHT31;54672;46.096;14.470;2022-07-23T15:32:38;35.96;23.61
67868;SHT31;54672;46.096;14.470;2022-07-23T15:35:04;36.02;24.06
67868;SHT31;54672;46.096;14.470;2022-07-23T15:37:32;36.09;23.56
67868;SHT31;54672;46.096;14.470;2022-07-23T15:39:57;36.20;23.78
67868;SHT31;54672;46.096;14.470;2022-07-23T15:42:23;36.17;24.10
67868;SHT31;54672;46.096;14.470;2022-07-23T15:44:49;36.20;24.13
67868;SHT31;54672;46.096;14.470;2022-07-23T15:47:16;36.26;24.22
67868;SHT31;54672;46.096;14.470;2022-07-23T15:49:41;36.29;24.36
67868;SHT31;54672;46.096;14.470;2022-07-23T15:52:07;36.33;24.11
67868;SHT31;54672;46.096;14.470;2022-07-23T15:54:35;36.26;24.15
67868;SHT31;54672;46.096;14.470;2022-07-23T15:57:01;36.16;24.13
67868;SHT31;54672;46.096;14.470;2022-07-23T15:59:26;36.12;24.57
67868;SHT31;54672;46.096;14.470;2022-07-23T16:01:52;36.09;23.45
67868;SHT31;54672;46.096;14.470;2022-07-23T16:04:17;36.07;24.40
67868;SHT31;54672;46.096;14.470;2022-07-23T16:06:43;36.00;24.40
67868;SHT31;54672;46.096;14.470;2022-07-23T16:09:08;36.00;24.02